Time;durP1;ratioP1;P1;durP2;ratioP2;P2;SDS_P1;SDS_P2;PMS_P1;PMS_P2;Temp;Humidity;BMP_temperature;BMP_pressure;BME280_temperature;BME280_humidity;BME280_pressure;Samples;Min_cycle;Max_cycle;Signal;HPM_P1;HPM_P2
2021/06/05 00:00:13;;;;;;;4.13;3.30;;;22.90;91.10;;;;;;5111399;28;20035;-78
2021/06/05 00:02:39;;;;;;;3.35;2.88;;;22.90;91.10;;;;;;5111458;28;20023;-77
2021/06/05 00:05:06;;;;;;;3.80;3.20;;;22.90;91.20;;;;;;5110505;28;20019;-78
2021/06/05 00:07:31;;;;;;;4.05;3.45;;;22.90;91.00;;;;;;5111816;28;20043;-80
2021/06/05 00:09:57;;;;;;;3.70;3.00;;;22.90;91.10;;;;;;5111135;28;20475;-78
2021/06/05 00:12:26;;;;;;;3.50;3.20;;;22.90;91.10;;;;;;5111186;28;20507;-78
2021/06/05 00:14:52;;;;;;;3.60;3.03;;;22.80;91.00;;;;;;5109206;28;20022;-78
2021/06/05 00:17:18;;;;;;;4.07;3.22;;;22.80;91.00;;;;;;5110355;28;20106;-77
2021/06/05 00:19:44;;;;;;;3.78;3.03;;;22.80;90.90;;;;;;5110459;28;20016;-76
2021/06/05 00:22:11;;;;;;;4.63;3.33;;;22.80;90.90;;;;;;5110947;28;20544;-77
2021/06/05 00:24:39;;;;;;;3.60;3.30;;;22.80;90.90;;;;;;5110222;28;20487;-77
2021/06/05 00:27:05;;;;;;;3.95;3.47;;;22.80;90.80;;;;;;5110936;28;20028;-77
2021/06/05 00:29:30;;;;;;;4.03;3.30;;;22.80;90.90;;;;;;5113369;28;20024;-78
2021/06/05 00:31:56;;;;;;;3.85;3.45;;;22.80;91.20;;;;;;5115284;28;20072;-78
2021/06/05 00:34:22;;;;;;;3.50;3.17;;;22.80;90.80;;;;;;5114523;28;20371;-77
2021/06/05 00:36:47;;;;;;;3.45;3.08;;;22.80;90.70;;;;;;5115136;28;20028;-77
2021/06/05 00:39:13;;;;;;;3.33;3.03;;;22.70;90.70;;;;;;5114589;28;20534;-77
2021/06/05 00:41:39;;;;;;;4.28;3.40;;;22.80;90.70;;;;;;5114495;28;20020;-77
2021/06/05 00:44:07;;;;;;;4.10;3.65;;;22.70;90.70;;;;;;5114452;28;20437;-76
2021/06/05 00:46:33;;;;;;;4.55;3.85;;;22.80;90.70;;;;;;5114356;28;20036;-76
2021/06/05 00:49:00;;;;;;;3.60;3.30;;;22.70;90.60;;;;;;5114565;28;20027;-79
2021/06/05 00:51:51;;;;;;;4.40;3.92;;;22.70;90.60;;;;;;5113466;28;20043;-76
2021/06/05 00:54:19;;;;;;;4.35;3.05;;;22.70;90.60;;;;;;5114262;28;20108;-77
2021/06/05 00:56:51;;;;;;;4.97;3.40;;;22.70;90.60;;;;;;5112839;28;20019;-77
2021/06/05 00:59:16;;;;;;;3.30;3.00;;;22.70;90.60;;;;;;5114441;28;20055;-76
2021/06/05 01:01:42;;;;;;;4.10;3.45;;;22.70;90.60;;;;;;5114242;28;20473;-77
2021/06/05 01:04:08;;;;;;;3.63;2.97;;;22.60;90.50;;;;;;5114459;28;20019;-78
2021/06/05 01:06:55;;;;;;;3.85;3.15;;;22.60;90.50;;;;;;5114189;28;20020;-77
2021/06/05 01:09:27;;;;;;;3.95;3.00;;;22.60;90.50;;;;;;5114297;28;20114;-78
2021/06/05 01:12:19;;;;;;;3.28;2.95;;;22.70;90.50;;;;;;5114189;28;20028;-77
2021/06/05 01:14:55;;;;;;;3.47;3.13;;;22.60;90.40;;;;;;5114361;28;20399;-77
2021/06/05 01:17:29;;;;;;;3.65;3.10;;;22.60;90.40;;;;;;5113917;28;20019;-77
2021/06/05 01:20:07;;;;;;;2.83;2.53;;;22.60;90.40;;;;;;5114344;28;20055;-76
2021/06/05 01:22:58;;;;;;;3.40;3.00;;;22.60;90.30;;;;;;5114551;28;20619;-76
2021/06/05 01:25:57;;;;;;;2.85;2.55;;;22.60;90.30;;;;;;5113090;28;20030;-77
2021/06/05 01:28:36;;;;;;;3.65;2.97;;;22.60;90.30;;;;;;5113129;28;20053;-77
2021/06/05 01:31:07;;;;;;;3.25;2.95;;;22.60;90.20;;;;;;5113985;28;20051;-77
2021/06/05 01:33:37;;;;;;;3.70;2.60;;;22.60;90.20;;;;;;5114026;28;20077;-77
2021/06/05 01:36:05;;;;;;;2.75;2.47;;;22.60;90.20;;;;;;5113835;28;20387;-77
2021/06/05 01:38:34;;;;;;;2.53;2.10;;;22.60;90.20;;;;;;5113575;28;20020;-77
2021/06/05 01:41:00;;;;;;;3.05;2.47;;;22.60;90.20;;;;;;5113205;28;20036;-77
2021/06/05 01:43:28;;;;;;;3.20;2.60;;;22.60;90.10;;;;;;5112782;28;20102;-75
2021/06/05 01:45:56;;;;;;;3.53;2.70;;;22.60;90.10;;;;;;5113620;28;20077;-77
2021/06/05 01:48:22;;;;;;;3.05;2.75;;;22.60;90.10;;;;;;5112408;28;20518;-76
2021/06/05 01:50:49;;;;;;;2.90;2.50;;;22.60;90.00;;;;;;5101786;28;20464;-77
2021/06/05 01:53:20;;;;;;;3.55;2.42;;;22.60;90.00;;;;;;5113288;27;20110;-77
2021/06/05 01:55:51;;;;;;;2.97;2.63;;;22.60;90.00;;;;;;5112852;28;20024;-77
2021/06/05 01:58:20;;;;;;;2.63;2.42;;;22.60;89.90;;;;;;5113059;28;20027;-77
2021/06/05 02:00:51;;;;;;;2.70;2.33;;;22.50;89.90;;;;;;5113136;28;20023;-77
2021/06/05 02:03:18;;;;;;;3.35;2.80;;;22.50;89.80;;;;;;5113160;28;20168;-77
2021/06/05 02:05:44;;;;;;;2.83;2.33;;;22.50;89.70;;;;;;5112837;28;20384;-77
2021/06/05 02:08:15;;;;;;;4.68;2.63;;;22.50;89.50;;;;;;5112872;28;20046;-78
2021/06/05 02:10:42;;;;;;;3.30;2.72;;;22.50;89.60;;;;;;5113338;28;20015;-77
2021/06/05 02:13:15;;;;;;;3.47;2.45;;;22.50;89.50;;;;;;5111321;28;20027;-77
2021/06/05 02:15:47;;;;;;;3.20;2.50;;;22.50;89.40;;;;;;5112815;28;20023;-78
2021/06/05 02:18:17;;;;;;;2.88;2.58;;;22.50;89.40;;;;;;5113030;28;20028;-78
2021/06/05 02:21:05;;;;;;;3.33;2.55;;;22.40;89.20;;;;;;5112673;28;20031;-76
2021/06/05 02:23:53;;;;;;;2.78;2.22;;;22.40;89.20;;;;;;5113235;27;20483;-77
2021/06/05 02:26:22;;;;;;;4.85;2.40;;;22.50;89.10;;;;;;5104642;28;20040;-76
2021/06/05 02:28:53;;;;;;;2.75;2.10;;;22.50;89.10;;;;;;5112499;28;20023;-77
2021/06/05 02:31:22;;;;;;;2.80;2.40;;;22.40;88.90;;;;;;5112173;28;20027;-79
2021/06/05 02:33:49;;;;;;;3.55;3.13;;;22.50;89.20;;;;;;5112885;28;20023;-78
2021/06/05 02:36:16;;;;;;;3.00;2.55;;;22.40;89.10;;;;;;5112395;28;20058;-78
2021/06/05 02:38:46;;;;;;;3.28;2.65;;;22.40;89.00;;;;;;5112930;28;20023;-78
2021/06/05 02:41:14;;;;;;;2.58;2.38;;;22.40;89.10;;;;;;5112149;28;20026;-77
2021/06/05 02:43:42;;;;;;;2.85;2.53;;;22.40;89.00;;;;;;5112381;28;20126;-76
2021/06/05 02:46:20;;;;;;;2.63;2.20;;;22.40;88.90;;;;;;5111538;28;20032;-77
2021/06/05 02:49:07;;;;;;;2.80;2.20;;;22.40;88.80;;;;;;5112006;28;20063;-76
2021/06/05 02:51:43;;;;;;;2.63;2.42;;;22.40;88.80;;;;;;5095374;28;20039;-76
2021/06/05 02:54:09;;;;;;;3.03;2.47;;;22.30;88.60;;;;;;5111753;28;20027;-76
2021/06/05 02:56:35;;;;;;;3.10;2.80;;;22.40;88.40;;;;;;5112000;28;20031;-76
2021/06/05 02:59:00;;;;;;;3.03;2.70;;;22.40;88.60;;;;;;5112152;28;20046;-76
2021/06/05 03:01:26;;;;;;;2.38;2.10;;;22.40;88.60;;;;;;5112061;28;20027;-76
2021/06/05 03:03:52;;;;;;;2.58;2.38;;;22.30;88.40;;;;;;5111769;28;20012;-76
2021/06/05 03:06:18;;;;;;;2.83;2.53;;;22.30;88.40;;;;;;5111929;28;20034;-76
2021/06/05 03:08:45;;;;;;;2.28;2.08;;;22.30;88.30;;;;;;5111682;28;20483;-77
2021/06/05 03:11:17;;;;;;;2.92;2.60;;;22.30;88.40;;;;;;5111652;28;20039;-77
2021/06/05 03:13:43;;;;;;;2.75;2.15;;;22.30;88.40;;;;;;5111620;28;20032;-77
2021/06/05 03:16:11;;;;;;;2.53;2.33;;;22.30;88.40;;;;;;5111853;28;20031;-77
2021/06/05 03:18:36;;;;;;;3.13;2.42;;;22.30;88.20;;;;;;5110487;28;20028;-76
2021/06/05 03:21:09;;;;;;;2.38;1.92;;;22.30;88.20;;;;;;5112244;28;20435;-77
2021/06/05 03:23:36;;;;;;;2.38;1.88;;;22.30;88.20;;;;;;5111585;28;20023;-78
2021/06/05 03:26:02;;;;;;;2.70;2.50;;;22.30;88.10;;;;;;5111593;28;20152;-76
2021/06/05 03:28:32;;;;;;;2.70;2.08;;;22.30;87.90;;;;;;5112099;28;20051;-77
2021/06/05 03:30:58;;;;;;;2.83;2.33;;;22.30;87.90;;;;;;5111638;28;20073;-77
2021/06/05 03:33:24;;;;;;;2.50;2.17;;;22.20;87.70;;;;;;5111092;28;20026;-78
2021/06/05 03:35:51;;;;;;;2.47;2.03;;;22.30;87.70;;;;;;5110070;28;20073;-77
2021/06/05 03:38:18;;;;;;;3.08;2.08;;;22.20;87.70;;;;;;5111538;28;20024;-76
2021/06/05 03:40:44;;;;;;;2.05;1.80;;;22.20;87.70;;;;;;5111071;28;20546;-75
2021/06/05 03:43:10;;;;;;;2.40;1.92;;;22.30;88.40;;;;;;5110548;28;20102;-77
2021/06/05 03:45:36;;;;;;;2.45;2.17;;;22.30;87.60;;;;;;5111555;28;20027;-76
2021/06/05 03:48:03;;;;;;;2.70;2.47;;;22.20;87.60;;;;;;5111872;28;20058;-77
2021/06/05 03:50:36;;;;;;;2.15;1.85;;;22.20;87.50;;;;;;5110106;28;20044;-76
2021/06/05 03:53:02;;;;;;;3.38;2.20;;;22.20;87.50;;;;;;5111481;28;20028;-76
2021/06/05 03:55:28;;;;;;;2.40;2.20;;;22.20;87.30;;;;;;5110765;28;20022;-77
2021/06/05 03:57:58;;;;;;;2.40;1.80;;;22.20;87.40;;;;;;5111031;28;20032;-77
2021/06/05 04:00:30;;;;;;;3.13;2.33;;;22.20;87.40;;;;;;5111325;28;20024;-76
2021/06/05 04:02:56;;;;;;;3.58;2.53;;;22.20;87.40;;;;;;5112665;28;20028;-79
2021/06/05 04:05:22;;;;;;;2.50;2.30;;;22.20;87.10;;;;;;5115078;28;20505;-78
2021/06/05 04:07:48;;;;;;;2.72;2.22;;;22.20;87.20;;;;;;5114965;28;20036;-77
2021/06/05 04:10:16;;;;;;;2.50;2.30;;;22.20;87.00;;;;;;5115354;28;20425;-77
2021/06/05 04:12:42;;;;;;;3.30;2.10;;;22.20;87.10;;;;;;5115695;28;20450;-77
2021/06/05 04:15:12;;;;;;;2.40;2.20;;;22.10;87.10;;;;;;5114854;28;20018;-79
2021/06/05 04:17:38;;;;;;;3.08;2.33;;;22.20;87.00;;;;;;5115503;28;20092;-77
2021/06/05 04:20:06;;;;;;;2.88;2.10;;;22.20;87.00;;;;;;5114118;28;20023;-79
2021/06/05 04:22:32;;;;;;;2.50;2.03;;;22.10;86.90;;;;;;5115638;28;20524;-77
2021/06/05 04:25:00;;;;;;;3.70;2.22;;;22.20;87.00;;;;;;5114733;28;20036;-77
2021/06/05 04:27:26;;;;;;;3.42;2.35;;;22.20;86.90;;;;;;5114596;27;20035;-76
2021/06/05 04:29:51;;;;;;;2.33;1.95;;;22.10;86.90;;;;;;5115319;28;20099;-79
2021/06/05 04:32:17;;;;;;;2.90;2.50;;;22.10;86.80;;;;;;5113546;28;20039;-79
2021/06/05 04:34:42;;;;;;;2.70;2.20;;;22.10;86.60;;;;;;5115229;28;20024;-78
2021/06/05 04:37:08;;;;;;;2.50;1.90;;;22.10;86.70;;;;;;5114505;28;20035;-79
2021/06/05 04:39:34;;;;;;;3.53;2.50;;;22.10;86.60;;;;;;5115132;28;20035;-80
2021/06/05 04:42:00;;;;;;;3.28;2.80;;;22.10;86.60;;;;;;5114934;28;20403;-78
2021/06/05 04:44:25;;;;;;;3.70;2.15;;;22.10;86.60;;;;;;5114388;28;20503;-77
2021/06/05 04:46:51;;;;;;;3.35;2.63;;;22.10;86.50;;;;;;5114883;28;20511;-79
2021/06/05 04:49:17;;;;;;;2.70;2.30;;;22.10;86.40;;;;;;5114754;28;20024;-77
2021/06/05 04:51:42;;;;;;;2.80;2.13;;;22.10;86.30;;;;;;5114474;28;20031;-78
2021/06/05 04:54:08;;;;;;;2.35;2.10;;;22.10;86.30;;;;;;5114522;28;20019;-79
2021/06/05 04:56:39;;;;;;;2.50;2.30;;;22.10;86.30;;;;;;5114834;28;20048;-77
2021/06/05 04:59:06;;;;;;;2.58;2.15;;;22.10;86.20;;;;;;5114468;28;20049;-77
2021/06/05 05:01:32;;;;;;;2.30;1.77;;;22.10;86.10;;;;;;5114307;28;20031;-78
2021/06/05 05:03:58;;;;;;;2.72;2.38;;;22.10;86.10;;;;;;5114509;28;20084;-77
2021/06/05 05:06:24;;;;;;;2.28;1.95;;;22.00;86.00;;;;;;5113689;28;20046;-77
2021/06/05 05:08:49;;;;;;;3.60;2.70;;;22.10;86.00;;;;;;5114612;28;20016;-76
2021/06/05 05:11:16;;;;;;;1.90;1.50;;;22.00;86.00;;;;;;5114202;28;20054;-76
2021/06/05 05:13:42;;;;;;;2.67;2.00;;;22.00;85.90;;;;;;5114292;28;20023;-77
2021/06/05 05:16:09;;;;;;;2.60;2.17;;;22.00;85.90;;;;;;5113565;28;20111;-77
2021/06/05 05:18:35;;;;;;;2.35;2.00;;;22.00;85.90;;;;;;5112374;28;20051;-76
2021/06/05 05:21:02;;;;;;;2.60;2.40;;;22.00;85.80;;;;;;5114212;28;20032;-77
2021/06/05 05:23:29;;;;;;;3.20;2.38;;;22.00;85.80;;;;;;5113806;28;20019;-77
2021/06/05 05:25:58;;;;;;;2.83;2.50;;;22.00;85.70;;;;;;5113657;28;20498;-76
2021/06/05 05:28:24;;;;;;;2.63;2.33;;;22.00;85.70;;;;;;5113578;28;20035;-77
2021/06/05 05:30:53;;;;;;;3.47;2.10;;;22.00;85.60;;;;;;5113916;28;20361;-76
2021/06/05 05:33:20;;;;;;;2.47;2.00;;;22.00;85.50;;;;;;5113297;28;20028;-77
2021/06/05 05:35:47;;;;;;;2.67;2.03;;;22.00;85.50;;;;;;5113652;28;20165;-77
2021/06/05 05:38:17;;;;;;;2.90;2.28;;;22.00;85.80;;;;;;5113746;28;20023;-77
2021/06/05 05:40:44;;;;;;;3.30;2.17;;;22.00;85.40;;;;;;5117052;27;20065;-77
2021/06/05 05:43:11;;;;;;;2.88;2.05;;;22.00;85.40;;;;;;5113162;28;20023;-77
2021/06/05 05:45:37;;;;;;;2.30;1.80;;;22.00;85.30;;;;;;5112958;27;20026;-77
2021/06/05 05:48:06;;;;;;;2.70;2.08;;;22.00;85.30;;;;;;5113054;28;20035;-77
2021/06/05 05:50:34;;;;;;;2.72;2.22;;;22.00;85.30;;;;;;5111692;28;20023;-77
2021/06/05 05:53:00;;;;;;;2.25;1.90;;;22.00;85.30;;;;;;5113403;28;20019;-77
2021/06/05 05:55:26;;;;;;;2.05;1.85;;;22.00;86.00;;;;;;5113460;28;20023;-77
2021/06/05 05:57:52;;;;;;;2.92;2.40;;;21.90;85.10;;;;;;5113336;28;20510;-77
2021/06/05 06:00:24;;;;;;;2.05;1.83;;;21.90;85.10;;;;;;5112442;28;20112;-78
2021/06/05 06:02:50;;;;;;;2.55;2.00;;;21.90;85.00;;;;;;5111680;28;20032;-79
2021/06/05 06:05:15;;;;;;;2.20;2.00;;;21.90;85.10;;;;;;5113198;28;20027;-77
2021/06/05 06:07:42;;;;;;;3.88;2.05;;;21.90;85.00;;;;;;5113284;28;20040;-76
2021/06/05 06:10:12;;;;;;;3.05;1.73;;;21.90;85.10;;;;;;5113124;28;20585;-77
2021/06/05 06:12:38;;;;;;;2.83;2.42;;;21.90;85.00;;;;;;5113386;28;20031;-76
2021/06/05 06:15:13;;;;;;;4.32;2.80;;;21.90;84.80;;;;;;5113081;28;20027;-76
2021/06/05 06:17:40;;;;;;;3.60;2.47;;;21.90;84.50;;;;;;5113287;28;20019;-77
2021/06/05 06:20:08;;;;;;;3.00;2.30;;;21.90;84.40;;;;;;5111114;28;20032;-76
2021/06/05 06:22:35;;;;;;;2.85;2.20;;;21.90;84.40;;;;;;5111492;28;20051;-79
2021/06/05 06:25:02;;;;;;;2.97;2.63;;;21.90;84.40;;;;;;5111728;28;20016;-77
2021/06/05 06:27:30;;;;;;;3.65;2.88;;;21.90;84.40;;;;;;5110580;28;20390;-76
2021/06/05 06:29:55;;;;;;;3.35;2.58;;;21.90;84.30;;;;;;5111319;28;20130;-77
2021/06/05 06:32:21;;;;;;;4.18;2.78;;;21.90;84.10;;;;;;5111027;28;20144;-78
2021/06/05 06:34:47;;;;;;;2.88;2.55;;;21.90;83.80;;;;;;5110941;28;20042;-76
2021/06/05 06:37:12;;;;;;;3.13;2.80;;;21.90;83.90;;;;;;5110892;28;20517;-76
2021/06/05 06:39:38;;;;;;;5.05;3.05;;;21.90;83.80;;;;;;5111466;28;20024;-78
2021/06/05 06:42:04;;;;;;;4.90;3.55;;;21.90;83.60;;;;;;5112496;28;20055;-77
2021/06/05 06:44:30;;;;;;;5.03;3.63;;;21.90;83.50;;;;;;5112967;28;20039;-78
2021/06/05 06:46:55;;;;;;;5.03;3.67;;;21.90;83.40;;;;;;5112375;28;20097;-76
2021/06/05 06:49:22;;;;;;;5.03;2.97;;;21.80;83.10;;;;;;5110145;28;20027;-76
2021/06/05 06:51:48;;;;;;;5.70;3.88;;;21.90;83.30;;;;;;5111522;28;20032;-77
2021/06/05 06:54:14;;;;;;;6.35;3.38;;;21.80;83.30;;;;;;5111892;28;20023;-77
2021/06/05 06:56:41;;;;;;;5.72;3.00;;;21.80;83.40;;;;;;5112471;28;20459;-77
2021/06/05 06:59:08;;;;;;;8.40;4.32;;;21.80;83.30;;;;;;5112202;28;20437;-77
2021/06/05 07:01:34;;;;;;;8.60;3.75;;;21.90;84.90;;;;;;5112232;28;20118;-78
2021/06/05 07:04:00;;;;;;;6.35;3.70;;;21.90;83.90;;;;;;5110842;28;20491;-76
2021/06/05 07:06:26;;;;;;;4.75;2.90;;;21.90;83.90;;;;;;5109609;28;20107;-77
2021/06/05 07:08:53;;;;;;;7.28;3.08;;;21.90;83.90;;;;;;5110720;28;20110;-77
2021/06/05 07:11:30;;;;;;;7.30;3.10;;;21.90;84.10;;;;;;5110293;28;20026;-77
2021/06/05 07:13:57;;;;;;;6.85;3.40;;;21.90;84.10;;;;;;5109333;28;20015;-77
2021/06/05 07:16:25;;;;;;;5.93;3.75;;;21.90;84.30;;;;;;5110413;28;20107;-78
2021/06/05 07:18:51;;;;;;;5.28;3.20;;;21.90;84.70;;;;;;5110204;28;20600;-78
2021/06/05 07:21:17;;;;;;;6.40;3.75;;;21.90;84.50;;;;;;5111010;28;20070;-79
2021/06/05 07:23:44;;;;;;;5.78;3.08;;;21.90;85.00;;;;;;5111613;28;20028;-78
2021/06/05 07:26:20;;;;;;;8.90;3.05;;;21.90;85.00;;;;;;5111559;28;20490;-80
2021/06/05 07:28:49;;;;;;;10.55;3.33;;;21.80;85.40;;;;;;5110298;28;20054;-79
2021/06/05 07:31:19;;;;;;;7.55;4.30;;;21.90;85.50;;;;;;5109872;28;20403;-78
2021/06/05 07:33:45;;;;;;;7.38;3.45;;;21.80;85.60;;;;;;5106529;28;20071;-77
2021/06/05 07:36:42;;;;;;;12.82;3.83;;;21.80;86.10;;;;;;5110423;28;20073;-79
2021/06/05 07:39:10;;;;;;;11.15;3.30;;;21.80;86.10;;;;;;5100970;28;20388;-77
2021/06/05 07:41:35;;;;;;;5.25;3.22;;;21.80;85.70;;;;;;5110360;28;20018;-78
2021/06/05 07:44:02;;;;;;;7.22;3.55;;;21.90;85.80;;;;;;5110344;28;20023;-78
2021/06/05 07:46:28;;;;;;;6.30;3.28;;;21.90;85.80;;;;;;5109685;28;20057;-77
2021/06/05 07:48:54;;;;;;;6.25;3.85;;;21.90;85.50;;;;;;5108881;28;20086;-78
2021/06/05 07:51:21;;;;;;;7.82;4.15;;;21.80;85.00;;;;;;5109772;28;20069;-77
2021/06/05 07:53:48;;;;;;;7.47;3.42;;;21.80;85.30;;;;;;5111106;28;20391;-79
2021/06/05 07:56:15;;;;;;;4.95;3.08;;;21.80;85.10;;;;;;5111483;28;20028;-78
2021/06/05 07:58:40;;;;;;;7.57;3.10;;;21.80;85.20;;;;;;5111707;28;20023;-78
2021/06/05 08:01:06;;;;;;;4.70;2.75;;;21.80;85.20;;;;;;5111211;28;20024;-77
2021/06/05 08:03:32;;;;;;;7.95;3.35;;;21.80;85.30;;;;;;5111827;28;20412;-79
2021/06/05 08:05:57;;;;;;;5.03;3.03;;;21.80;85.20;;;;;;5111156;28;20016;-78
2021/06/05 08:08:23;;;;;;;8.10;3.40;;;21.80;85.00;;;;;;5110627;28;20515;-79
2021/06/05 08:10:49;;;;;;;6.60;3.95;;;21.80;85.70;;;;;;5110081;28;20019;-79
2021/06/05 08:13:15;;;;;;;13.30;4.22;;;21.80;85.40;;;;;;5111189;28;20063;-80
2021/06/05 08:15:49;;;;;;;6.15;2.90;;;21.90;85.90;;;;;;5104080;28;20051;-82
2021/06/05 08:18:16;;;;;;;4.97;3.33;;;21.90;87.00;;;;;;5110171;28;20089;-78
2021/06/05 08:20:46;;;;;;;5.97;3.25;;;21.90;86.50;;;;;;5110802;28;20096;-80
2021/06/05 08:23:12;;;;;;;8.68;3.42;;;21.90;86.50;;;;;;5093867;28;20023;-77
2021/06/05 08:25:38;;;;;;;9.10;3.80;;;21.90;86.50;;;;;;5110128;28;20027;-78
2021/06/05 08:28:05;;;;;;;6.20;3.67;;;21.90;85.90;;;;;;5109582;28;20089;-80
2021/06/05 08:30:43;;;;;;;6.80;3.47;;;21.80;86.20;;;;;;5110236;28;20111;-79
2021/06/05 08:33:10;;;;;;;6.55;2.90;;;21.90;86.00;;;;;;5110260;28;20016;-78
2021/06/05 08:35:38;;;;;;;4.78;3.08;;;21.90;86.30;;;;;;5111138;28;20372;-78
2021/06/05 08:38:05;;;;;;;7.32;3.00;;;21.90;86.20;;;;;;5110476;28;20103;-79
2021/06/05 08:41:00;;;;;;;5.55;2.83;;;21.90;86.30;;;;;;5117659;28;20031;-80
2021/06/05 08:43:37;;;;;;;6.20;3.35;;;21.90;86.20;;;;;;5101352;28;20039;-79
2021/06/05 08:46:05;;;;;;;7.53;3.17;;;21.90;86.20;;;;;;5110354;28;20031;-78
2021/06/05 08:48:31;;;;;;;4.28;2.70;;;21.90;86.30;;;;;;5110202;28;20031;-78
2021/06/05 08:51:12;;;;;;;5.20;3.30;;;21.90;86.20;;;;;;5113044;28;20074;-78
2021/06/05 08:53:39;;;;;;;5.90;3.42;;;21.90;86.00;;;;;;5113798;28;20019;-78
2021/06/05 08:56:10;;;;;;;6.20;3.65;;;21.90;86.20;;;;;;5113468;28;20439;-79
2021/06/05 08:58:46;;;;;;;4.50;2.80;;;21.90;86.10;;;;;;5114183;28;20034;-79
2021/06/05 09:01:20;;;;;;;6.60;3.20;;;21.90;86.00;;;;;;5097148;28;20019;-78
2021/06/05 09:03:50;;;;;;;6.25;3.25;;;21.90;85.90;;;;;;5112335;28;20465;-79
2021/06/05 09:06:30;;;;;;;5.07;3.13;;;21.90;85.90;;;;;;5113454;28;20020;-78
2021/06/05 09:08:56;;;;;;;5.47;2.92;;;21.90;85.80;;;;;;5113342;28;20063;-77
2021/06/05 09:11:22;;;;;;;5.82;3.38;;;21.90;85.80;;;;;;5113436;28;20062;-79
2021/06/05 09:13:47;;;;;;;5.65;3.10;;;21.90;85.70;;;;;;5112943;28;20038;-77
2021/06/05 09:16:19;;;;;;;4.82;2.88;;;21.90;85.60;;;;;;5112564;28;20044;-77
2021/06/05 09:18:56;;;;;;;6.07;3.15;;;21.90;85.50;;;;;;5113177;28;20036;-77
2021/06/05 09:21:40;;;;;;;6.20;3.15;;;21.90;85.40;;;;;;5113782;28;20357;-77
2021/06/05 09:24:41;;;;;;;5.40;3.00;;;21.90;85.40;;;;;;5113974;28;20479;-76
2021/06/05 09:27:16;;;;;;;5.10;3.15;;;21.90;85.30;;;;;;5113486;28;20043;-76
2021/06/05 09:30:00;;;;;;;4.35;3.08;;;21.90;85.50;;;;;;5114127;28;20548;-75
2021/06/05 09:32:54;;;;;;;4.55;2.88;;;21.90;85.40;;;;;;5113883;28;20052;-76
2021/06/05 09:35:26;;;;;;;3.95;2.97;;;21.90;85.40;;;;;;5114002;28;20498;-76
2021/06/05 09:38:16;;;;;;;9.27;3.20;;;21.90;85.30;;;;;;5113622;28;20020;-75
2021/06/05 09:41:10;;;;;;;5.80;3.15;;;21.90;85.30;;;;;;5096234;28;20107;-77
2021/06/05 09:43:36;;;;;;;5.05;3.13;;;21.90;85.50;;;;;;5104281;28;20028;-78
2021/06/05 09:46:07;;;;;;;5.78;3.05;;;21.90;85.60;;;;;;5113951;28;20031;-78
2021/06/05 09:48:42;;;;;;;5.03;3.13;;;21.90;85.80;;;;;;5113062;28;20129;-77
2021/06/05 09:51:27;;;;;;;20.08;9.07;;;21.90;85.80;;;;;;5113046;28;20141;-77
2021/06/05 09:54:39;;;;;;;18.30;5.15;;;21.90;86.20;;;;;;5112496;28;20032;-77
2021/06/05 09:57:15;;;;;;;19.77;7.25;;;21.90;86.80;;;;;;5087771;28;20390;-79
2021/06/05 09:59:41;;;;;;;26.65;8.40;;;21.90;87.60;;;;;;5113482;28;20032;-77
2021/06/05 10:02:21;;;;;;;35.35;11.75;;;21.90;88.70;;;;;;5113041;28;20027;-76
2021/06/05 10:05:10;;;;;;;25.70;7.97;;;21.90;90.20;;;;;;5112996;28;20471;-76
2021/06/05 10:07:36;;;;;;;19.02;7.82;;;21.90;90.90;;;;;;5113286;28;20039;-79
2021/06/05 10:10:12;;;;;;;24.48;9.50;;;22.00;91.40;;;;;;5113672;28;20024;-79
2021/06/05 10:12:41;;;;;;;27.27;9.25;;;22.00;92.30;;;;;;5112747;28;20023;-78
2021/06/05 10:15:15;;;;;;;21.02;7.47;;;22.00;93.50;;;;;;5111891;28;20020;-78
2021/06/05 10:18:12;;;;;;;19.02;7.68;;;22.00;94.80;;;;;;5113046;28;20027;-78
2021/06/05 10:20:45;;;;;;;24.52;7.35;;;22.00;94.10;;;;;;5112617;28;20103;-79
2021/06/05 10:23:19;;;;;;;16.20;7.45;;;22.10;94.10;;;;;;5110038;28;20487;-78
2021/06/05 10:25:48;;;;;;;22.63;6.93;;;22.10;94.10;;;;;;5112208;28;20028;-79
2021/06/05 10:28:21;;;;;;;16.80;6.50;;;22.10;94.20;;;;;;5111015;28;20035;-78
2021/06/05 10:30:52;;;;;;;17.05;6.30;;;22.10;94.10;;;;;;5112700;28;20043;-78
2021/06/05 10:33:26;;;;;;;19.05;5.45;;;22.10;93.90;;;;;;5112400;28;20459;-78
2021/06/05 10:35:55;;;;;;;14.75;5.95;;;22.10;93.80;;;;;;5112247;28;20035;-78
2021/06/05 10:39:02;;;;;;;16.42;7.22;;;22.10;93.70;;;;;;5110943;28;20035;-78
2021/06/05 10:41:37;;;;;;;16.42;5.40;;;22.10;93.70;;;;;;5078085;28;20114;-77
2021/06/05 10:44:06;;;;;;;15.05;6.63;;;22.20;93.40;;;;;;5112092;28;20026;-78
2021/06/05 10:46:50;;;;;;;13.32;5.72;;;22.20;93.50;;;;;;5112623;28;20100;-78
2021/06/05 10:49:39;;;;;;;11.15;5.50;;;22.20;93.10;;;;;;5112363;28;20031;-80
2021/06/05 10:52:16;;;;;;;11.27;5.20;;;22.20;93.10;;;;;;5111260;28;20015;-79
2021/06/05 10:54:49;;;;;;;12.50;5.15;;;22.20;93.20;;;;;;5112371;28;20411;-79
2021/06/05 10:57:24;;;;;;;10.30;4.88;;;22.10;93.00;;;;;;5111804;28;20023;-78
2021/06/05 10:59:53;;;;;;;12.77;5.18;;;22.10;92.80;;;;;;5112524;28;20027;-80
2021/06/05 11:02:45;;;;;;;14.23;5.63;;;22.10;92.80;;;;;;5112190;28;20031;-79
2021/06/05 11:05:16;;;;;;;12.93;4.88;;;22.20;92.80;;;;;;5112203;28;20103;-81
2021/06/05 11:07:43;;;;;;;10.55;4.43;;;22.20;92.70;;;;;;5112134;28;20073;-79
2021/06/05 11:10:11;;;;;;;9.10;5.15;;;22.10;92.50;;;;;;5111700;28;20054;-81
2021/06/05 11:12:37;;;;;;;10.35;4.85;;;22.10;92.20;;;;;;5109770;28;20123;-78
2021/06/05 11:15:04;;;;;;;7.43;4.25;;;22.20;92.20;;;;;;5111322;28;20114;-77
2021/06/05 11:17:36;;;;;;;9.55;4.40;;;22.20;92.40;;;;;;5112069;28;20086;-79
2021/06/05 11:20:05;;;;;;;11.20;4.40;;;22.20;92.30;;;;;;5112334;28;20506;-78
2021/06/05 11:22:51;;;;;;;9.38;4.53;;;22.20;92.10;;;;;;5112285;27;20027;-79
2021/06/05 11:25:17;;;;;;;9.05;4.32;;;22.20;91.90;;;;;;5111813;28;20030;-79
2021/06/05 11:27:44;;;;;;;10.95;4.45;;;22.20;91.80;;;;;;5111910;28;20044;-79
2021/06/05 11:30:22;;;;;;;8.32;4.22;;;22.20;91.80;;;;;;5111672;28;20027;-78
2021/06/05 11:32:52;;;;;;;7.60;3.70;;;22.20;91.80;;;;;;5111818;28;20028;-79
2021/06/05 11:35:52;;;;;;;8.88;4.20;;;22.20;91.80;;;;;;5111468;28;20023;-80
2021/06/05 11:38:17;;;;;;;8.93;4.15;;;22.20;91.70;;;;;;5110350;28;20026;-78
2021/06/05 11:40:52;;;;;;;7.38;4.15;;;22.20;92.10;;;;;;5111290;28;20035;-78
2021/06/05 11:43:33;;;;;;;8.97;4.57;;;22.20;92.40;;;;;;5111541;28;20019;-78
2021/06/05 11:46:17;;;;;;;7.10;4.18;;;22.20;92.60;;;;;;5111634;28;20835;-78
2021/06/05 11:48:47;;;;;;;10.25;4.70;;;22.30;92.60;;;;;;5111380;28;20027;-78
2021/06/05 11:51:21;;;;;;;7.88;4.38;;;22.30;92.70;;;;;;5111765;28;20490;-78
2021/06/05 11:53:53;;;;;;;13.63;4.37;;;22.30;92.90;;;;;;5108211;28;20028;-78
2021/06/05 11:56:42;;;;;;;6.32;4.25;;;22.30;92.80;;;;;;5110968;28;20058;-81
2021/06/05 11:59:22;;;;;;;13.63;4.38;;;22.30;92.80;;;;;;5107909;28;20020;-78
2021/06/05 12:01:48;;;;;;;7.50;4.38;;;22.30;92.60;;;;;;5106189;28;20036;-77
2021/06/05 12:04:18;;;;;;;6.22;3.88;;;22.30;92.70;;;;;;5110602;28;20382;-76
2021/06/05 12:06:46;;;;;;;7.63;4.20;;;22.30;92.50;;;;;;5110789;28;20028;-77
2021/06/05 12:09:19;;;;;;;6.50;4.00;;;22.30;92.60;;;;;;5107745;28;20059;-78
2021/06/05 12:11:50;;;;;;;6.88;4.07;;;22.30;92.40;;;;;;5115103;28;20035;-79
2021/06/05 12:17:33;;;;;;;8.70;4.07;;;22.30;92.30;;;;;;5108970;28;20023;-77
2021/06/05 12:20:13;;;;;;;7.22;4.18;;;22.30;92.40;;;;;;5110047;28;20028;-78
2021/06/05 12:22:43;;;;;;;7.85;3.88;;;22.30;92.50;;;;;;5110673;28;20057;-77
2021/06/05 12:25:33;;;;;;;9.68;4.00;;;22.30;92.40;;;;;;5111090;28;20034;-77
2021/06/05 12:28:27;;;;;;;5.07;3.90;;;22.30;92.50;;;;;;5115162;28;20035;-78
2021/06/05 12:30:55;;;;;;;7.38;4.10;;;22.30;92.50;;;;;;5109993;28;20092;-78
2021/06/05 12:33:28;;;;;;;8.85;4.05;;;22.30;92.40;;;;;;5113489;28;20108;-77
2021/06/05 12:35:54;;;;;;;7.15;4.03;;;22.30;92.50;;;;;;5113086;28;20031;-77
2021/06/05 12:38:39;;;;;;;6.50;4.75;;;22.30;92.40;;;;;;5113475;28;20019;-77
2021/06/05 12:41:11;;;;;;;11.30;4.07;;;22.30;92.50;;;;;;5112203;28;20054;-76
2021/06/05 12:43:40;;;;;;;9.23;4.28;;;22.40;92.10;;;;;;5112633;28;20016;-76
2021/06/05 12:46:12;;;;;;;9.18;4.15;;;22.40;92.60;;;;;;5109700;28;20031;-76
2021/06/05 12:48:38;;;;;;;7.03;3.90;;;22.40;92.90;;;;;;5113218;28;20031;-76
2021/06/05 12:51:07;;;;;;;7.40;4.15;;;22.40;93.30;;;;;;5112916;28;20468;-76
2021/06/05 12:53:34;;;;;;;8.50;4.05;;;22.40;93.20;;;;;;5113521;28;20063;-77
2021/06/05 12:56:03;;;;;;;5.47;3.10;;;22.40;93.10;;;;;;5113712;28;20020;-76
2021/06/05 12:58:33;;;;;;;6.22;3.50;;;22.40;93.30;;;;;;5111343;28;20024;-77
2021/06/05 13:00:59;;;;;;;6.68;3.40;;;22.40;93.20;;;;;;5113546;28;20107;-77
2021/06/05 13:03:38;;;;;;;9.30;4.00;;;22.40;93.10;;;;;;5114608;28;20023;-78
2021/06/05 13:06:21;;;;;;;8.52;4.47;;;22.40;93.00;;;;;;5109124;27;20076;-78